createdAt,value
2022-12-09T00:01:05.204Z,10.07
2022-12-09T00:03:43.770Z,9.70
2022-12-09T00:06:21.340Z,12.43
2022-12-09T00:08:55.504Z,10.70
2022-12-09T00:11:27.830Z,11.23
2022-12-09T00:13:59.601Z,10.40
2022-12-09T00:16:30.410Z,11.87
2022-12-09T00:19:01.205Z,7.10
2022-12-09T00:21:38.596Z,9.83
2022-12-09T00:24:16.150Z,9.80
2022-12-09T00:26:48.336Z,9.07
2022-12-09T00:29:22.188Z,10.10
2022-12-09T00:31:53.357Z,8.67
2022-12-09T00:34:24.748Z,9.13
2022-12-09T00:36:56.118Z,6.63
2022-12-09T00:39:29.870Z,8.67
2022-12-09T00:42:00.407Z,7.83
2022-12-09T00:44:32.963Z,7.40
2022-12-09T00:47:05.145Z,7.93
2022-12-09T00:49:37.151Z,6.03
2022-12-09T00:52:08.480Z,8.10
2022-12-09T00:54:41.466Z,6.73
2022-12-09T00:57:12.230Z,6.47
2022-12-09T00:59:43.759Z,7.40
2022-12-09T01:02:22.322Z,8.37
2022-12-09T01:04:57.159Z,7.83
2022-12-09T01:07:27.951Z,7.57
2022-12-09T01:10:02.588Z,4.93
2022-12-09T01:12:36.728Z,8.30
2022-12-09T01:15:08.592Z,7.23
2022-12-09T01:17:42.266Z,7.40
2022-12-09T01:20:14.262Z,8.23
2022-12-09T01:22:44.984Z,7.03
2022-12-09T01:25:19.051Z,8.60
2022-12-09T01:27:49.448Z,7.37
2022-12-09T01:30:19.813Z,4.77
2022-12-09T01:32:50.930Z,7.80
2022-12-09T01:35:23.419Z,8.47
2022-12-09T01:38:00.630Z,8.83
2022-12-09T01:40:33.215Z,8.67
2022-12-09T01:43:03.566Z,8.20
2022-12-09T01:45:46.274Z,5.53
2022-12-09T01:48:18.597Z,7.10
2022-12-09T01:50:54.422Z,9.37
2022-12-09T01:53:30.210Z,7.80
2022-12-09T01:56:15.783Z,7.37
2022-12-09T01:58:52.122Z,7.00
2022-12-09T02:01:22.493Z,9.53
2022-12-09T02:03:54.166Z,8.23
2022-12-09T02:06:24.438Z,7.50
2022-12-09T02:08:56.501Z,9.77
2022-12-09T02:11:41.400Z,9.20
2022-12-09T02:14:18.620Z,8.03
2022-12-09T02:17:02.626Z,6.67
2022-12-09T02:19:50.663Z,8.50
2022-12-09T02:22:32.423Z,8.43
2022-12-09T02:25:14.988Z,8.17
2022-12-09T02:27:52.696Z,8.07
2022-12-09T02:30:25.736Z,9.13
2022-12-09T02:33:24.505Z,7.43
2022-12-09T02:36:02.655Z,7.30
2022-12-09T02:38:36.943Z,8.43
2022-12-09T02:41:11.752Z,9.33
2022-12-09T02:43:55.507Z,9.60
2022-12-09T02:46:39.609Z,9.20
2022-12-09T02:49:12.536Z,8.37
2022-12-09T02:51:47.884Z,9.47
2022-12-09T02:54:22.908Z,9.33
2022-12-09T02:56:59.653Z,10.10
2022-12-09T02:59:35.765Z,8.63
2022-12-09T03:02:20.829Z,9.77
2022-12-09T03:04:59.101Z,9.27
2022-12-09T03:07:48.609Z,8.70
2022-12-09T03:10:27.760Z,8.10
2022-12-09T03:13:07.543Z,8.87
2022-12-09T03:15:41.693Z,7.97
2022-12-09T03:18:17.708Z,10.47
2022-12-09T03:20:50.317Z,9.37
2022-12-09T03:23:30.963Z,10.67
2022-12-09T03:26:02.808Z,9.73
2022-12-09T03:28:38.291Z,8.90
2022-12-09T03:31:18.654Z,6.97
2022-12-09T03:34:01.342Z,8.10
2022-12-09T03:36:36.607Z,9.27
2022-12-09T03:39:12.146Z,9.03
2022-12-09T03:41:48.240Z,9.43
2022-12-09T03:44:26.748Z,8.73
2022-12-09T03:46:58.636Z,9.43
2022-12-09T03:49:44.183Z,8.63
2022-12-09T03:52:18.397Z,7.90
2022-12-09T03:54:55.289Z,9.20
2022-12-09T03:57:27.971Z,6.20
2022-12-09T04:00:02.967Z,8.23
2022-12-09T04:02:47.169Z,9.27
2022-12-09T04:05:17.750Z,8.67
2022-12-09T04:07:49.350Z,8.87
2022-12-09T04:10:21.801Z,8.80
2022-12-09T04:12:54.448Z,9.90
2022-12-09T04:15:24.713Z,9.10
2022-12-09T04:17:57.437Z,10.77
2022-12-09T04:20:31.595Z,9.77
2022-12-09T04:23:01.284Z,9.77
2022-12-09T04:25:34.179Z,9.87
2022-12-09T04:28:05.985Z,9.63
2022-12-09T04:30:37.641Z,9.70
2022-12-09T04:33:09.299Z,10.30
2022-12-09T04:35:40.759Z,8.50
2022-12-09T04:38:14.331Z,9.47
2022-12-09T04:41:01.951Z,10.47
2022-12-09T04:43:33.634Z,9.67
2022-12-09T04:46:07.224Z,10.03
2022-12-09T04:48:39.976Z,10.03
2022-12-09T04:51:14.358Z,8.83
2022-12-09T04:53:50.088Z,10.77
2022-12-09T04:56:23.881Z,11.27
2022-12-09T04:58:55.674Z,10.53
2022-12-09T05:01:31.455Z,10.77
2022-12-09T05:04:03.098Z,12.37
2022-12-09T05:06:37.415Z,10.00
2022-12-09T05:09:10.901Z,11.80
2022-12-09T05:11:43.263Z,10.27
2022-12-09T05:14:13.087Z,10.27
2022-12-09T05:16:44.816Z,10.60
2022-12-09T05:19:15.345Z,10.30
2022-12-09T05:21:48.774Z,12.80
2022-12-09T05:24:19.126Z,11.83
2022-12-09T05:26:50.878Z,10.53
2022-12-09T05:29:23.867Z,9.70
2022-12-09T05:31:58.295Z,11.67
2022-12-09T05:34:29.878Z,12.83
2022-12-09T05:37:11.906Z,12.47
2022-12-09T05:39:45.303Z,11.87
2022-12-09T05:42:18.336Z,12.17
2022-12-09T05:44:50.455Z,12.47
2022-12-09T05:47:22.028Z,14.03
2022-12-09T05:49:55.200Z,11.30
2022-12-09T05:52:30.222Z,11.83
2022-12-09T05:55:03.930Z,10.67
2022-12-09T05:57:39.215Z,12.80
2022-12-09T06:00:15.949Z,12.13
2022-12-09T06:02:46.262Z,12.33
2022-12-09T06:05:19.343Z,11.30
2022-12-09T06:07:53.160Z,12.00
2022-12-09T06:10:27.329Z,9.80
2022-12-09T06:13:02.548Z,10.47
2022-12-09T06:15:36.024Z,9.97
2022-12-09T06:18:10.800Z,11.23
2022-12-09T06:20:48.518Z,9.67
2022-12-09T06:23:23.636Z,9.80
2022-12-09T06:25:57.234Z,11.93
2022-12-09T06:28:34.037Z,10.83
2022-12-09T06:31:04.318Z,9.83
2022-12-09T06:33:54.011Z,10.07
2022-12-09T06:36:24.898Z,9.90
2022-12-09T06:38:54.832Z,11.10
2022-12-09T06:41:27.622Z,12.13
2022-12-09T06:44:02.767Z,10.57
2022-12-09T06:46:35.426Z,9.97
2022-12-09T06:49:05.821Z,11.20
2022-12-09T06:51:35.909Z,9.77
2022-12-09T06:54:10.351Z,10.30
2022-12-09T06:56:40.467Z,10.40
2022-12-09T06:59:20.613Z,11.93
2022-12-09T07:01:57.210Z,10.00
2022-12-09T07:04:47.937Z,11.37
2022-12-09T07:07:28.169Z,11.07
2022-12-09T07:10:07.714Z,10.50
2022-12-09T07:12:45.816Z,11.00
2022-12-09T07:15:24.175Z,12.53
2022-12-09T07:18:06.872Z,11.43
2022-12-09T07:20:40.903Z,12.13
2022-12-09T07:23:10.798Z,9.57
2022-12-09T07:25:54.539Z,11.50
2022-12-09T07:28:35.156Z,9.33
2022-12-09T07:31:11.080Z,9.93
2022-12-09T07:33:40.672Z,11.47
2022-12-09T07:36:13.479Z,9.63
2022-12-09T07:38:45.791Z,11.87
2022-12-09T07:41:19.513Z,11.60
2022-12-09T07:43:50.373Z,11.30
2022-12-09T07:46:23.592Z,10.93
2022-12-09T07:48:58.271Z,10.90
2022-12-09T07:51:29.817Z,11.67
2022-12-09T07:54:03.426Z,11.73
2022-12-09T07:56:34.312Z,10.43
2022-12-09T07:59:06.607Z,11.77
2022-12-09T08:01:40.022Z,11.13
2022-12-09T08:04:10.580Z,12.80
2022-12-09T08:06:43.514Z,11.70
2022-12-09T08:09:14.945Z,11.17
2022-12-09T08:11:45.390Z,11.83
2022-12-09T08:14:16.288Z,11.70
2022-12-09T08:16:50.100Z,10.33
2022-12-09T08:19:23.812Z,11.23
2022-12-09T08:21:55.578Z,12.07
2022-12-09T08:24:25.435Z,12.03
2022-12-09T08:26:55.038Z,11.40
2022-12-09T08:29:25.733Z,12.80
2022-12-09T08:31:59.371Z,12.57
2022-12-09T08:34:29.364Z,10.43
2022-12-09T08:37:02.235Z,11.13
2022-12-09T08:39:33.710Z,12.57
2022-12-09T08:42:04.313Z,11.70
2022-12-09T08:44:34.248Z,12.37
2022-12-09T08:47:06.676Z,11.23
2022-12-09T08:49:44.503Z,12.33
2022-12-09T08:52:14.911Z,11.80
2022-12-09T08:54:44.992Z,10.93
2022-12-09T08:57:17.936Z,11.77
2022-12-09T08:59:48.000Z,12.17
2022-12-09T09:02:21.531Z,11.40
2022-12-09T09:04:52.902Z,12.43
2022-12-09T09:07:22.802Z,10.67
2022-12-09T09:09:53.859Z,11.77
2022-12-09T09:12:25.440Z,11.87
2022-12-09T09:14:55.560Z,12.50
2022-12-09T09:17:27.444Z,11.70
2022-12-09T09:19:57.588Z,11.77
2022-12-09T09:22:28.499Z,12.73
2022-12-09T09:24:58.918Z,13.93
2022-12-09T09:27:29.808Z,9.80
2022-12-09T09:29:59.453Z,12.43
2022-12-09T09:32:32.878Z,12.70
2022-12-09T09:35:05.362Z,12.73
2022-12-09T09:37:38.278Z,12.13
2022-12-09T09:40:11.596Z,11.83
2022-12-09T09:42:58.103Z,12.77
2022-12-09T09:45:27.582Z,11.57
2022-12-09T09:48:03.023Z,11.40
2022-12-09T09:50:37.726Z,11.77
2022-12-09T09:53:16.865Z,10.13
2022-12-09T09:55:54.858Z,12.67
2022-12-09T09:58:28.697Z,10.87
2022-12-09T10:01:06.217Z,10.73
2022-12-09T10:03:52.486Z,10.33
2022-12-09T10:06:34.410Z,11.60
2022-12-09T10:09:15.171Z,10.00
2022-12-09T10:11:57.403Z,9.13
2022-12-09T10:14:42.835Z,10.63
2022-12-09T10:17:25.133Z,9.97
2022-12-09T10:20:00.222Z,10.67
2022-12-09T10:22:34.427Z,8.97
2022-12-09T10:25:19.628Z,10.90
2022-12-09T10:27:56.070Z,11.13
2022-12-09T10:30:31.570Z,9.67
2022-12-09T10:33:05.665Z,11.43
2022-12-09T10:35:37.426Z,9.73
2022-12-09T10:38:11.834Z,9.80
2022-12-09T10:40:53.762Z,9.27
2022-12-09T10:43:39.534Z,8.30
2022-12-09T10:46:21.763Z,9.30
2022-12-09T10:49:04.017Z,10.33
2022-12-09T10:51:39.653Z,9.07
2022-12-09T10:54:22.211Z,8.40
2022-12-09T10:57:25.938Z,8.53
2022-12-09T11:00:02.815Z,9.77
2022-12-09T11:02:34.719Z,10.10
2022-12-09T11:05:29.886Z,10.47
2022-12-09T11:08:01.955Z,8.30
2022-12-09T11:10:32.257Z,9.40
2022-12-09T11:13:06.499Z,8.63
2022-12-09T11:15:42.788Z,9.03
2022-12-09T11:18:22.335Z,8.37
2022-12-09T11:21:01.115Z,10.33
2022-12-09T11:23:34.633Z,9.13
2022-12-09T11:26:07.655Z,8.33
2022-12-09T11:28:41.884Z,9.47
2022-12-09T11:31:35.422Z,9.50
2022-12-09T11:34:14.600Z,9.10
2022-12-09T11:36:48.813Z,9.67
2022-12-09T11:39:32.139Z,8.17
2022-12-09T11:42:18.980Z,7.93
2022-12-09T11:44:58.131Z,9.80
2022-12-09T11:47:50.408Z,9.80
2022-12-09T11:50:31.305Z,7.73
2022-12-09T11:53:16.592Z,9.20
2022-12-09T11:55:51.525Z,9.27
2022-12-09T11:58:27.508Z,8.27
2022-12-09T12:01:04.325Z,7.97
2022-12-09T12:03:41.049Z,7.47
2022-12-09T12:06:18.921Z,8.17
2022-12-09T12:08:52.642Z,8.50
2022-12-09T12:11:29.153Z,7.40
2022-12-09T12:14:13.531Z,7.63
2022-12-09T12:17:02.628Z,6.77
2022-12-09T12:19:36.548Z,8.07
2022-12-09T12:22:28.948Z,7.90
2022-12-09T12:25:19.964Z,7.83
2022-12-09T12:28:20.384Z,8.30
2022-12-09T12:30:57.580Z,7.07
2022-12-09T12:36:40.956Z,8.03
2022-12-09T12:39:23.839Z,8.83
2022-12-09T12:42:03.577Z,9.80
2022-12-09T12:45:18.545Z,9.13
2022-12-09T12:47:55.740Z,8.17
2022-12-09T12:50:55.917Z,8.93
2022-12-09T12:53:41.189Z,9.40
2022-12-09T12:56:16.394Z,7.57
2022-12-09T12:59:02.853Z,9.03
2022-12-09T13:01:50.243Z,8.73
2022-12-09T13:04:26.006Z,9.63
2022-12-09T13:07:03.489Z,9.33
2022-12-09T13:09:43.811Z,9.17
2022-12-09T13:12:45.989Z,8.43
2022-12-09T13:15:19.638Z,9.93
2022-12-09T13:17:52.497Z,9.90
2022-12-09T13:20:31.527Z,10.37
2022-12-09T13:23:09.131Z,9.70
2022-12-09T13:25:46.697Z,9.07
2022-12-09T13:28:23.005Z,11.30
2022-12-09T13:30:59.251Z,9.43
2022-12-09T13:33:54.024Z,9.13
2022-12-09T13:36:42.048Z,9.37
2022-12-09T13:39:14.839Z,10.50
2022-12-09T13:42:03.983Z,10.90
2022-12-09T13:44:37.033Z,10.87
2022-12-09T13:47:28.319Z,10.43
2022-12-09T13:50:05.137Z,10.53
2022-12-09T13:52:51.802Z,9.00
2022-12-09T13:55:39.720Z,10.40
2022-12-09T13:58:37.324Z,8.73
2022-12-09T14:01:18.125Z,9.50
2022-12-09T14:04:09.545Z,9.30
2022-12-09T14:06:54.655Z,8.37
2022-12-09T14:09:37.438Z,10.00
2022-12-09T14:12:12.732Z,9.30
2022-12-09T14:15:01.912Z,10.17
2022-12-09T14:18:04.050Z,10.20
2022-12-09T14:20:40.356Z,10.07
2022-12-09T14:23:20.901Z,9.73
2022-12-09T14:26:05.958Z,10.37
2022-12-09T14:29:01.604Z,12.13
2022-12-09T14:32:01.741Z,9.10
2022-12-09T14:34:45.122Z,10.83
2022-12-09T14:37:36.132Z,10.63
2022-12-09T14:40:26.508Z,10.00
2022-12-09T14:43:08.681Z,11.30
2022-12-09T14:45:49.154Z,10.70
2022-12-09T14:48:23.561Z,10.60
2022-12-09T14:51:10.342Z,11.03
2022-12-09T14:53:40.335Z,11.53
2022-12-09T14:56:20.798Z,10.53
2022-12-09T14:58:54.934Z,11.00
2022-12-09T15:01:35.652Z,10.80
2022-12-09T15:04:07.694Z,11.43
2022-12-09T15:06:37.795Z,11.73
2022-12-09T15:09:09.422Z,12.97
2022-12-09T15:11:43.902Z,12.50
2022-12-09T15:14:29.883Z,10.77
2022-12-09T15:17:06.718Z,12.30
2022-12-09T15:19:59.856Z,11.97
2022-12-09T15:22:56.509Z,12.50
2022-12-09T15:25:27.875Z,10.47
2022-12-09T15:28:08.357Z,11.53
2022-12-09T15:30:41.855Z,10.77
2022-12-09T15:33:16.675Z,11.80
2022-12-09T15:35:55.402Z,10.60
2022-12-09T15:38:30.143Z,12.13
2022-12-09T15:41:20.421Z,11.73
2022-12-09T15:43:55.310Z,11.00
2022-12-09T15:46:34.953Z,11.33
2022-12-09T15:49:06.838Z,10.80
2022-12-09T15:51:47.221Z,11.53
2022-12-09T15:54:23.381Z,12.40
2022-12-09T15:57:01.641Z,12.17
2022-12-09T15:59:38.032Z,12.13
2022-12-09T16:02:11.032Z,13.20
2022-12-09T16:04:54.361Z,11.70
2022-12-09T16:07:25.679Z,11.97
2022-12-09T16:10:09.056Z,11.43
2022-12-09T16:12:43.132Z,13.07
2022-12-09T16:15:44.649Z,12.80
2022-12-09T16:18:19.411Z,11.93
2022-12-09T16:21:02.144Z,11.50
2022-12-09T16:23:32.522Z,13.10
2022-12-09T16:26:07.408Z,11.93
2022-12-09T16:28:37.783Z,12.67
2022-12-09T16:31:19.109Z,10.60
2022-12-09T16:33:50.216Z,10.47
2022-12-09T16:36:23.123Z,10.83
2022-12-09T16:39:46.636Z,11.13
2022-12-09T16:42:30.122Z,11.50
2022-12-09T16:45:22.178Z,11.47
2022-12-09T16:47:58.575Z,11.97
2022-12-09T16:50:31.098Z,11.73
2022-12-09T16:53:01.244Z,11.80
2022-12-09T16:55:32.464Z,11.63
2022-12-09T16:58:02.298Z,11.23
2022-12-09T17:00:32.043Z,10.90
2022-12-09T17:03:06.999Z,11.43
2022-12-09T17:05:36.661Z,12.00
2022-12-09T17:08:06.528Z,11.80
2022-12-09T17:10:38.038Z,12.73
2022-12-09T17:13:07.341Z,12.13
2022-12-09T17:15:39.888Z,11.10
2022-12-09T17:18:17.268Z,12.00
2022-12-09T17:20:47.656Z,12.03
2022-12-09T17:23:19.029Z,11.20
2022-12-09T17:25:59.352Z,11.67
2022-12-09T17:28:30.371Z,10.83
2022-12-09T17:31:13.016Z,11.90
2022-12-09T17:33:47.508Z,11.53
2022-12-09T17:36:19.910Z,12.57
2022-12-09T17:38:49.739Z,12.37
2022-12-09T17:41:23.672Z,11.63
2022-12-09T17:44:11.448Z,12.90
2022-12-09T17:46:45.494Z,12.17
2022-12-09T17:49:18.018Z,12.43
2022-12-09T17:51:49.076Z,12.10
2022-12-09T17:54:22.448Z,14.70
2022-12-09T17:56:52.215Z,12.07
2022-12-09T17:59:23.270Z,13.13
2022-12-09T18:01:55.265Z,12.33
2022-12-09T18:04:26.283Z,13.10
2022-12-09T18:06:56.260Z,11.53
2022-12-09T18:09:29.440Z,12.63
2022-12-09T18:12:18.375Z,12.90
2022-12-09T18:14:50.064Z,12.90
2022-12-09T18:17:21.343Z,12.83
2022-12-09T18:19:53.370Z,13.27
2022-12-09T18:22:23.195Z,13.30
2022-12-09T18:24:54.904Z,16.33
2022-12-09T18:27:24.452Z,12.13
2022-12-09T18:29:58.191Z,14.33
2022-12-09T18:32:31.471Z,13.40
2022-12-09T18:35:08.231Z,12.40
2022-12-09T18:37:37.983Z,12.43
2022-12-09T18:40:08.831Z,12.70
2022-12-09T18:42:40.773Z,12.57
2022-12-09T18:45:14.121Z,12.53
2022-12-09T18:47:44.190Z,12.60
2022-12-09T18:50:15.934Z,12.33
2022-12-09T18:52:45.650Z,12.13
2022-12-09T18:55:15.635Z,12.07
2022-12-09T18:57:45.609Z,11.97
2022-12-09T19:00:19.920Z,12.50
2022-12-09T19:02:53.807Z,13.37
2022-12-09T19:05:26.581Z,14.23
2022-12-09T19:07:56.505Z,14.53
2022-12-09T19:10:26.488Z,12.07
2022-12-09T19:12:57.565Z,11.87
2022-12-09T19:15:27.650Z,13.10
2022-12-09T19:17:57.628Z,13.63
2022-12-09T19:20:32.057Z,13.97
2022-12-09T19:23:06.279Z,12.40
2022-12-09T19:25:36.089Z,12.27
2022-12-09T19:28:06.370Z,13.13
2022-12-09T19:30:36.471Z,12.53
2022-12-09T19:33:06.007Z,11.50
2022-12-09T19:35:37.743Z,10.80
2022-12-09T19:38:09.139Z,11.53
2022-12-09T19:40:40.623Z,12.17
2022-12-09T19:43:09.889Z,12.80
2022-12-09T19:45:39.526Z,14.20
2022-12-09T19:48:09.214Z,15.80
2022-12-09T19:50:40.041Z,9.23
2022-12-09T19:53:09.717Z,18.80
2022-12-09T19:55:41.063Z,18.47
2022-12-09T19:58:10.530Z,14.17
2022-12-09T20:00:41.628Z,14.63
2022-12-09T20:03:13.349Z,12.70
2022-12-09T20:05:59.468Z,10.53
2022-12-09T20:08:29.558Z,11.73
2022-12-09T20:11:01.885Z,12.57
2022-12-09T20:13:32.121Z,10.17
2022-12-09T20:16:06.723Z,11.43
2022-12-09T20:18:36.033Z,13.90
2022-12-09T20:21:10.092Z,15.03
2022-12-09T20:23:41.773Z,13.70
2022-12-09T20:26:13.324Z,10.73
2022-12-09T20:28:47.487Z,12.70
2022-12-09T20:31:19.460Z,14.57
2022-12-09T20:33:49.558Z,13.70
2022-12-09T20:36:22.649Z,15.77
2022-12-09T20:38:53.891Z,14.37
2022-12-09T20:41:25.340Z,14.73
2022-12-09T20:43:58.419Z,13.47
2022-12-09T20:46:30.788Z,14.83
2022-12-09T20:49:01.496Z,12.87
2022-12-09T20:51:34.477Z,15.37
2022-12-09T20:54:05.278Z,15.00
2022-12-09T20:56:36.098Z,12.50
2022-12-09T20:59:06.804Z,13.67
2022-12-09T21:01:37.420Z,14.87
2022-12-09T21:04:08.515Z,13.60
2022-12-09T21:06:41.974Z,12.87
2022-12-09T21:09:14.985Z,14.43
2022-12-09T21:11:46.599Z,15.90
2022-12-09T21:14:18.289Z,14.67
2022-12-09T21:16:50.616Z,14.13
2022-12-09T21:19:24.842Z,15.17
2022-12-09T21:21:58.844Z,14.37
2022-12-09T21:24:30.756Z,15.97
2022-12-09T21:27:01.734Z,16.43
2022-12-09T21:29:32.459Z,18.93
2022-12-09T21:32:03.177Z,14.17
2022-12-09T21:34:33.555Z,16.20
2022-12-09T21:37:04.542Z,15.10
2022-12-09T21:39:33.733Z,15.37
2022-12-09T21:42:03.836Z,15.27
2022-12-09T21:44:33.152Z,15.00
2022-12-09T21:47:02.844Z,14.60
2022-12-09T21:49:33.473Z,15.37
2022-12-09T21:52:06.835Z,15.70
2022-12-09T21:54:38.554Z,15.10
2022-12-09T21:57:08.131Z,15.20
2022-12-09T21:59:37.411Z,13.97
2022-12-09T22:02:08.607Z,16.03
2022-12-09T22:04:38.437Z,14.43
2022-12-09T22:07:12.038Z,17.20
2022-12-09T22:09:42.553Z,14.43
2022-12-09T22:12:12.024Z,14.00
2022-12-09T22:14:41.534Z,16.70
2022-12-09T22:17:11.476Z,14.33
2022-12-09T22:19:41.937Z,16.03
2022-12-09T22:22:13.391Z,16.10
2022-12-09T22:24:42.724Z,15.67
2022-12-09T22:27:14.223Z,18.73
2022-12-09T22:29:43.573Z,16.93
2022-12-09T22:32:12.997Z,15.13
2022-12-09T22:34:42.380Z,13.50
2022-12-09T22:37:41.866Z,14.67
2022-12-09T22:40:02.975Z,15.87
2022-12-09T22:42:32.385Z,14.47
2022-12-09T22:45:02.222Z,16.87
2022-12-09T22:47:31.605Z,13.43
2022-12-09T22:50:00.929Z,16.37
2022-12-09T22:52:31.599Z,16.30
2022-12-09T22:55:02.289Z,14.60
2022-12-09T22:57:32.441Z,14.20
2022-12-09T23:00:01.911Z,13.80
2022-12-09T23:02:31.528Z,14.27
2022-12-09T23:05:01.154Z,16.60
2022-12-09T23:07:33.820Z,15.37
2022-12-09T23:10:03.088Z,15.37
2022-12-09T23:12:33.607Z,16.77
2022-12-09T23:15:03.039Z,15.20
2022-12-09T23:17:33.096Z,14.70
2022-12-09T23:20:02.481Z,13.90
2022-12-09T23:22:33.151Z,15.10
2022-12-09T23:25:02.375Z,15.40
2022-12-09T23:27:32.613Z,14.43
2022-12-09T23:30:01.792Z,14.63
2022-12-09T23:32:32.672Z,13.97
2022-12-09T23:35:07.202Z,13.20
2022-12-09T23:37:38.192Z,13.30
2022-12-09T23:40:09.277Z,15.73
2022-12-09T23:42:39.978Z,14.37
2022-12-09T23:45:10.135Z,14.87
2022-12-09T23:47:39.403Z,15.50
2022-12-09T23:50:09.470Z,13.33
2022-12-09T23:52:40.629Z,14.43
2022-12-09T23:55:11.187Z,13.77
2022-12-09T23:57:41.701Z,13.33
